sensor_id;sensor_type;location;lat;lon;timestamp;pressure;altitude;pressure_sealevel;temperature;humidity
51083;BME280;37131;42.694;23.350;2023-05-14T00:02:12;95907.94;;;14.09;56.29
51083;BME280;37131;42.694;23.350;2023-05-14T00:04:38;95895.81;;;14.19;55.87
51083;BME280;37131;42.694;23.350;2023-05-14T00:07:05;95913.28;;;14.14;55.71
51083;BME280;37131;42.694;23.350;2023-05-14T00:09:31;95909.19;;;13.94;56.09
51083;BME280;37131;42.694;23.350;2023-05-14T00:11:57;95914.66;;;13.93;56.61
51083;BME280;37131;42.694;23.350;2023-05-14T00:14:22;95902.00;;;14.01;56.72
51083;BME280;37131;42.694;23.350;2023-05-14T00:16:48;95907.13;;;14.08;55.90
51083;BME280;37131;42.694;23.350;2023-05-14T00:19:13;95892.75;;;14.23;55.07
51083;BME280;37131;42.694;23.350;2023-05-14T00:21:39;95897.53;;;14.26;55.52
51083;BME280;37131;42.694;23.350;2023-05-14T00:24:04;95897.97;;;14.23;56.34
51083;BME280;37131;42.694;23.350;2023-05-14T00:26:30;95895.81;;;14.31;54.98
51083;BME280;37131;42.694;23.350;2023-05-14T00:28:55;95887.63;;;14.28;54.62
51083;BME280;37131;42.694;23.350;2023-05-14T00:31:20;95888.50;;;14.33;54.72
51083;BME280;37131;42.694;23.350;2023-05-14T00:33:46;95886.94;;;14.20;55.04
51083;BME280;37131;42.694;23.350;2023-05-14T00:36:11;95877.00;;;14.23;54.90
51083;BME280;37131;42.694;23.350;2023-05-14T00:38:37;95883.78;;;14.47;54.15
51083;BME280;37131;42.694;23.350;2023-05-14T00:41:02;95882.53;;;14.50;53.97
51083;BME280;37131;42.694;23.350;2023-05-14T00:43:27;95879.00;;;14.44;55.27
51083;BME280;37131;42.694;23.350;2023-05-14T00:45:53;95876.00;;;14.52;54.00
51083;BME280;37131;42.694;23.350;2023-05-14T00:48:20;95875.81;;;14.42;54.63
51083;BME280;37131;42.694;23.350;2023-05-14T00:50:47;95875.06;;;14.18;54.71
51083;BME280;37131;42.694;23.350;2023-05-14T00:53:13;95879.31;;;14.19;54.90
51083;BME280;37131;42.694;23.350;2023-05-14T00:55:40;95872.69;;;14.16;54.46
51083;BME280;37131;42.694;23.350;2023-05-14T00:58:08;95869.50;;;14.14;54.36
51083;BME280;37131;42.694;23.350;2023-05-14T01:00:34;95865.59;;;14.29;53.82
51083;BME280;37131;42.694;23.350;2023-05-14T01:03:00;95858.78;;;14.16;54.41
51083;BME280;37131;42.694;23.350;2023-05-14T01:05:38;95861.53;;;14.09;54.43
51083;BME280;37131;42.694;23.350;2023-05-14T01:15:55;95829.06;;;13.86;53.16
51083;BME280;37131;42.694;23.350;2023-05-14T01:18:22;95851.47;;;14.18;53.15
51083;BME280;37131;42.694;23.350;2023-05-14T01:20:49;95853.34;;;14.06;54.17
51083;BME280;37131;42.694;23.350;2023-05-14T01:23:16;95865.84;;;14.03;53.00
51083;BME280;37131;42.694;23.350;2023-05-14T01:25:42;95880.22;;;13.89;53.90
51083;BME280;37131;42.694;23.350;2023-05-14T01:28:17;95879.22;;;13.90;53.00
51083;BME280;37131;42.694;23.350;2023-05-14T01:31:07;95887.31;;;13.77;53.72
51083;BME280;37131;42.694;23.350;2023-05-14T01:33:35;95899.25;;;13.84;54.28
51083;BME280;37131;42.694;23.350;2023-05-14T01:36:01;95883.91;;;13.76;53.54
51083;BME280;37131;42.694;23.350;2023-05-14T01:38:27;95896.41;;;13.86;54.21
51083;BME280;37131;42.694;23.350;2023-05-14T01:40:58;95873.06;;;13.73;53.71
51083;BME280;37131;42.694;23.350;2023-05-14T01:43:24;95887.31;;;13.77;54.23
51083;BME280;37131;42.694;23.350;2023-05-14T01:45:50;95880.59;;;13.81;53.39
51083;BME280;37131;42.694;23.350;2023-05-14T01:48:15;95887.75;;;14.09;52.97
51083;BME280;37131;42.694;23.350;2023-05-14T01:50:41;95838.31;;;13.77;53.64
51083;BME280;37131;42.694;23.350;2023-05-14T01:53:06;95879.66;;;13.99;53.85
51083;BME280;37131;42.694;23.350;2023-05-14T01:55:31;95875.66;;;14.08;52.65
51083;BME280;37131;42.694;23.350;2023-05-14T01:57:57;95888.44;;;13.93;53.98
51083;BME280;37131;42.694;23.350;2023-05-14T02:00:23;95894.72;;;13.92;54.20
51083;BME280;37131;42.694;23.350;2023-05-14T02:02:51;95889.38;;;13.86;53.90
51083;BME280;37131;42.694;23.350;2023-05-14T02:05:17;95893.78;;;13.86;55.23
51083;BME280;37131;42.694;23.350;2023-05-14T02:07:42;95888.69;;;13.79;55.76
51083;BME280;37131;42.694;23.350;2023-05-14T02:10:08;95896.78;;;13.66;56.76
51083;BME280;37131;42.694;23.350;2023-05-14T02:12:34;95870.50;;;13.19;58.46
51083;BME280;37131;42.694;23.350;2023-05-14T02:14:59;95898.66;;;13.35;57.37
51083;BME280;37131;42.694;23.350;2023-05-14T02:17:25;95893.47;;;13.28;57.41
51083;BME280;37131;42.694;23.350;2023-05-14T02:19:50;95851.47;;;13.11;57.30
51083;BME280;37131;42.694;23.350;2023-05-14T02:22:16;95884.31;;;12.95;57.87
51083;BME280;37131;42.694;23.350;2023-05-14T02:24:42;95900.06;;;13.19;56.99
51083;BME280;37131;42.694;23.350;2023-05-14T02:27:07;95902.28;;;13.34;56.34
51083;BME280;37131;42.694;23.350;2023-05-14T02:29:33;95909.69;;;13.37;57.01
51083;BME280;37131;42.694;23.350;2023-05-14T02:31:58;95914.56;;;13.22;58.75
51083;BME280;37131;42.694;23.350;2023-05-14T02:34:23;95909.25;;;12.98;60.31
51083;BME280;37131;42.694;23.350;2023-05-14T02:36:49;95903.28;;;12.91;60.60
51083;BME280;37131;42.694;23.350;2023-05-14T02:39:14;95864.84;;;12.61;60.15
51083;BME280;37131;42.694;23.350;2023-05-14T02:41:40;95919.59;;;13.05;60.16
51083;BME280;37131;42.694;23.350;2023-05-14T02:44:05;95925.22;;;13.08;61.79
51083;BME280;37131;42.694;23.350;2023-05-14T02:46:30;95925.31;;;13.13;61.13
51083;BME280;37131;42.694;23.350;2023-05-14T02:48:56;95926.66;;;13.04;60.29
51083;BME280;37131;42.694;23.350;2023-05-14T02:51:22;95916.34;;;12.79;60.24
51083;BME280;37131;42.694;23.350;2023-05-14T02:53:48;95933.81;;;12.97;59.61
51083;BME280;37131;42.694;23.350;2023-05-14T02:56:13;95933.81;;;12.97;59.16
51083;BME280;37131;42.694;23.350;2023-05-14T02:58:39;95933.59;;;12.68;60.84
51083;BME280;37131;42.694;23.350;2023-05-14T03:01:04;95928.41;;;12.80;61.10
51083;BME280;37131;42.694;23.350;2023-05-14T03:03:30;95935.41;;;12.98;59.76
51083;BME280;37131;42.694;23.350;2023-05-14T03:05:55;95926.53;;;12.99;60.05
51083;BME280;37131;42.694;23.350;2023-05-14T03:08:21;95928.31;;;13.17;58.75
51083;BME280;37131;42.694;23.350;2023-05-14T03:10:46;95921.34;;;13.23;59.59
51083;BME280;37131;42.694;23.350;2023-05-14T03:13:12;95921.03;;;13.19;59.42
51083;BME280;37131;42.694;23.350;2023-05-14T03:15:39;95905.34;;;13.31;58.73
51083;BME280;37131;42.694;23.350;2023-05-14T03:18:04;95901.13;;;13.30;59.20
51083;BME280;37131;42.694;23.350;2023-05-14T03:20:30;95893.00;;;13.20;59.42
51083;BME280;37131;42.694;23.350;2023-05-14T03:22:56;95893.78;;;13.08;58.77
51083;BME280;37131;42.694;23.350;2023-05-14T03:25:21;95901.91;;;13.19;58.35
51083;BME280;37131;42.694;23.350;2023-05-14T03:27:47;95907.09;;;13.37;58.28
51083;BME280;37131;42.694;23.350;2023-05-14T03:30:12;95912.56;;;13.36;58.80
51083;BME280;37131;42.694;23.350;2023-05-14T03:32:38;95906.84;;;13.39;58.93
51083;BME280;37131;42.694;23.350;2023-05-14T03:35:03;95911.09;;;13.40;59.58
51083;BME280;37131;42.694;23.350;2023-05-14T03:37:29;95916.56;;;13.20;61.35
51083;BME280;37131;42.694;23.350;2023-05-14T03:39:54;95932.44;;;12.94;63.19
51083;BME280;37131;42.694;23.350;2023-05-14T03:42:20;95930.03;;;12.62;65.21
51083;BME280;37131;42.694;23.350;2023-05-14T03:44:45;95926.59;;;12.80;65.92
51083;BME280;37131;42.694;23.350;2023-05-14T03:47:10;95906.34;;;12.57;68.63
51083;BME280;37131;42.694;23.350;2023-05-14T03:49:36;95916.66;;;12.52;69.26
51083;BME280;37131;42.694;23.350;2023-05-14T03:52:01;95916.38;;;12.42;68.98
51083;BME280;37131;42.694;23.350;2023-05-14T03:54:26;95901.56;;;12.36;69.70
51083;BME280;37131;42.694;23.350;2023-05-14T03:56:52;95932.50;;;12.57;69.67
51083;BME280;37131;42.694;23.350;2023-05-14T03:59:17;95929.88;;;12.57;69.19
51083;BME280;37131;42.694;23.350;2023-05-14T04:01:43;95893.16;;;12.15;69.55
51083;BME280;37131;42.694;23.350;2023-05-14T04:04:08;95914.44;;;12.37;70.35
51083;BME280;37131;42.694;23.350;2023-05-14T04:06:35;95927.78;;;12.29;71.53
51083;BME280;37131;42.694;23.350;2023-05-14T04:09:00;95928.44;;;12.24;70.44
51083;BME280;37131;42.694;23.350;2023-05-14T04:11:26;95928.56;;;12.29;70.88
51083;BME280;37131;42.694;23.350;2023-05-14T04:13:51;95929.66;;;12.22;71.25
51083;BME280;37131;42.694;23.350;2023-05-14T04:16:16;95934.69;;;12.42;69.25
51083;BME280;37131;42.694;23.350;2023-05-14T04:18:42;95936.47;;;12.41;70.47
51083;BME280;37131;42.694;23.350;2023-05-14T04:21:07;95943.19;;;12.37;70.08
51083;BME280;37131;42.694;23.350;2023-05-14T04:23:32;95936.34;;;12.36;70.22
51083;BME280;37131;42.694;23.350;2023-05-14T04:25:58;95938.88;;;12.61;68.56
51083;BME280;37131;42.694;23.350;2023-05-14T04:28:23;95938.09;;;12.61;70.48
51083;BME280;37131;42.694;23.350;2023-05-14T04:30:49;95940.78;;;12.54;69.43
51083;BME280;37131;42.694;23.350;2023-05-14T04:33:15;95944.41;;;12.53;68.62
51083;BME280;37131;42.694;23.350;2023-05-14T04:35:41;95958.38;;;12.66;69.19
51083;BME280;37131;42.694;23.350;2023-05-14T04:38:06;95959.22;;;12.41;70.74
51083;BME280;37131;42.694;23.350;2023-05-14T04:40:33;95959.59;;;12.44;70.21
51083;BME280;37131;42.694;23.350;2023-05-14T04:42:58;95958.00;;;12.43;70.93
51083;BME280;37131;42.694;23.350;2023-05-14T04:45:23;95963.28;;;12.74;68.71
51083;BME280;37131;42.694;23.350;2023-05-14T04:47:49;95970.63;;;12.65;67.33
51083;BME280;37131;42.694;23.350;2023-05-14T04:50:15;95971.41;;;12.84;66.99
51083;BME280;37131;42.694;23.350;2023-05-14T04:52:40;95970.47;;;12.41;68.30
51083;BME280;37131;42.694;23.350;2023-05-14T04:55:06;95976.53;;;12.60;69.01
51083;BME280;37131;42.694;23.350;2023-05-14T04:57:32;95986.19;;;12.41;71.82
51083;BME280;37131;42.694;23.350;2023-05-14T04:59:58;95994.16;;;12.28;73.70
51083;BME280;37131;42.694;23.350;2023-05-14T05:02:23;95995.19;;;12.27;72.83
51083;BME280;37131;42.694;23.350;2023-05-14T05:04:48;95954.63;;;11.92;74.38
51083;BME280;37131;42.694;23.350;2023-05-14T05:07:14;95999.06;;;12.18;75.24
51083;BME280;37131;42.694;23.350;2023-05-14T05:09:39;96004.72;;;12.15;76.32
51083;BME280;37131;42.694;23.350;2023-05-14T05:12:05;96014.88;;;12.04;79.70
51083;BME280;37131;42.694;23.350;2023-05-14T05:14:30;95981.53;;;11.74;80.22
51083;BME280;37131;42.694;23.350;2023-05-14T05:16:56;96029.41;;;12.00;79.71
51083;BME280;37131;42.694;23.350;2023-05-14T05:19:21;95990.75;;;11.77;79.11
51083;BME280;37131;42.694;23.350;2023-05-14T05:21:47;96027.44;;;11.89;79.32
51083;BME280;37131;42.694;23.350;2023-05-14T05:24:12;96043.00;;;11.77;81.50
51083;BME280;37131;42.694;23.350;2023-05-14T05:26:38;96033.66;;;11.63;83.41
51083;BME280;37131;42.694;23.350;2023-05-14T05:29:04;96048.97;;;11.52;84.02
51083;BME280;37131;42.694;23.350;2023-05-14T05:31:30;96044.47;;;11.28;87.18
51083;BME280;37131;42.694;23.350;2023-05-14T05:33:57;96042.84;;;11.33;89.33
51083;BME280;37131;42.694;23.350;2023-05-14T05:36:23;96056.19;;;11.18;91.86
51083;BME280;37131;42.694;23.350;2023-05-14T05:38:48;96052.78;;;11.11;94.17
51083;BME280;37131;42.694;23.350;2023-05-14T05:41:14;96055.38;;;11.18;95.30
51083;BME280;37131;42.694;23.350;2023-05-14T05:43:39;96052.25;;;10.96;97.13
51083;BME280;37131;42.694;23.350;2023-05-14T05:46:05;96056.66;;;11.02;97.46
51083;BME280;37131;42.694;23.350;2023-05-14T05:48:31;96055.06;;;10.94;98.12
51083;BME280;37131;42.694;23.350;2023-05-14T05:50:56;96057.28;;;10.97;100.00
51083;BME280;37131;42.694;23.350;2023-05-14T05:53:21;96064.34;;;10.70;100.00
51083;BME280;37131;42.694;23.350;2023-05-14T05:55:47;96064.16;;;10.71;100.00
51083;BME280;37131;42.694;23.350;2023-05-14T05:58:12;96055.84;;;11.01;100.00
51083;BME280;37131;42.694;23.350;2023-05-14T06:00:40;96053.91;;;10.70;100.00
51083;BME280;37131;42.694;23.350;2023-05-14T06:03:05;96049.75;;;10.56;100.00
51083;BME280;37131;42.694;23.350;2023-05-14T06:05:31;96051.78;;;10.47;100.00
51083;BME280;37131;42.694;23.350;2023-05-14T06:07:56;96047.34;;;10.41;100.00
51083;BME280;37131;42.694;23.350;2023-05-14T06:10:22;96040.34;;;10.41;100.00
51083;BME280;37131;42.694;23.350;2023-05-14T06:12:47;96048.91;;;10.68;100.00
51083;BME280;37131;42.694;23.350;2023-05-14T06:15:13;96047.72;;;10.64;100.00
51083;BME280;37131;42.694;23.350;2023-05-14T06:17:38;96042.50;;;10.64;100.00
51083;BME280;37131;42.694;23.350;2023-05-14T06:20:04;96057.75;;;10.67;100.00
51083;BME280;37131;42.694;23.350;2023-05-14T06:22:30;96047.91;;;10.69;100.00
51083;BME280;37131;42.694;23.350;2023-05-14T06:24:55;96041.13;;;10.62;100.00
51083;BME280;37131;42.694;23.350;2023-05-14T06:27:21;96044.53;;;10.49;100.00
51083;BME280;37131;42.694;23.350;2023-05-14T06:29:46;96033.53;;;10.47;100.00
51083;BME280;37131;42.694;23.350;2023-05-14T06:32:12;96055.78;;;10.03;100.00
51083;BME280;37131;42.694;23.350;2023-05-14T06:34:40;96051.97;;;10.05;100.00
51083;BME280;37131;42.694;23.350;2023-05-14T06:37:06;96063.00;;;9.94;100.00
51083;BME280;37131;42.694;23.350;2023-05-14T06:39:32;96064.00;;;9.99;100.00
51083;BME280;37131;42.694;23.350;2023-05-14T06:41:57;96059.78;;;10.25;100.00
51083;BME280;37131;42.694;23.350;2023-05-14T06:44:22;95972.22;;;9.64;100.00
51083;BME280;37131;42.694;23.350;2023-05-14T06:46:48;96049.38;;;10.12;100.00
51083;BME280;37131;42.694;23.350;2023-05-14T06:49:13;96044.13;;;10.18;100.00
51083;BME280;37131;42.694;23.350;2023-05-14T06:51:38;96044.56;;;10.22;100.00
51083;BME280;37131;42.694;23.350;2023-05-14T06:54:04;96042.16;;;9.94;100.00
51083;BME280;37131;42.694;23.350;2023-05-14T06:56:30;96027.34;;;9.88;100.00
51083;BME280;37131;42.694;23.350;2023-05-14T06:58:55;96022.31;;;10.13;100.00
51083;BME280;37131;42.694;23.350;2023-05-14T07:01:21;96026.09;;;10.30;100.00
51083;BME280;37131;42.694;23.350;2023-05-14T07:03:46;96026.72;;;10.19;100.00
51083;BME280;37131;42.694;23.350;2023-05-14T07:06:12;96030.13;;;9.99;100.00
51083;BME280;37131;42.694;23.350;2023-05-14T07:08:38;96039.75;;;10.06;100.00
51083;BME280;37131;42.694;23.350;2023-05-14T07:11:03;96046.16;;;9.90;100.00
51083;BME280;37131;42.694;23.350;2023-05-14T07:13:29;96033.94;;;9.83;100.00
51083;BME280;37131;42.694;23.350;2023-05-14T07:15:54;96029.72;;;9.96;100.00
51083;BME280;37131;42.694;23.350;2023-05-14T07:18:22;96060.59;;;10.06;100.00
51083;BME280;37131;42.694;23.350;2023-05-14T07:20:48;96078.00;;;9.92;100.00
51083;BME280;37131;42.694;23.350;2023-05-14T07:23:14;96078.84;;;10.06;100.00
51083;BME280;37131;42.694;23.350;2023-05-14T07:25:40;96074.22;;;9.94;100.00
51083;BME280;37131;42.694;23.350;2023-05-14T07:28:05;96018.91;;;9.65;100.00
51083;BME280;37131;42.694;23.350;2023-05-14T07:30:31;96059.59;;;9.87;100.00
51083;BME280;37131;42.694;23.350;2023-05-14T07:32:56;96059.78;;;9.85;100.00
51083;BME280;37131;42.694;23.350;2023-05-14T07:35:22;96043.91;;;9.66;100.00
51083;BME280;37131;42.694;23.350;2023-05-14T07:37:47;96040.34;;;9.81;100.00
51083;BME280;37131;42.694;23.350;2023-05-14T07:40:13;96055.56;;;9.84;100.00
51083;BME280;37131;42.694;23.350;2023-05-14T07:42:39;96058.38;;;9.76;100.00
51083;BME280;37131;42.694;23.350;2023-05-14T07:45:05;96061.09;;;9.47;100.00
51083;BME280;37131;42.694;23.350;2023-05-14T07:47:31;96058.94;;;9.64;100.00
51083;BME280;37131;42.694;23.350;2023-05-14T07:49:56;96061.38;;;9.86;100.00
51083;BME280;37131;42.694;23.350;2023-05-14T07:52:22;96054.97;;;9.95;100.00
51083;BME280;37131;42.694;23.350;2023-05-14T07:54:49;96070.00;;;10.00;100.00
51083;BME280;37131;42.694;23.350;2023-05-14T07:57:15;95986.81;;;9.52;100.00
51083;BME280;37131;42.694;23.350;2023-05-14T07:59:40;96082.22;;;10.06;100.00
51083;BME280;37131;42.694;23.350;2023-05-14T08:02:06;96083.63;;;9.95;100.00
51083;BME280;37131;42.694;23.350;2023-05-14T08:04:34;96082.03;;;9.94;100.00
51083;BME280;37131;42.694;23.350;2023-05-14T08:07:00;96073.22;;;9.82;100.00
51083;BME280;37131;42.694;23.350;2023-05-14T08:09:25;96076.84;;;10.01;100.00
51083;BME280;37131;42.694;23.350;2023-05-14T08:11:51;96076.84;;;10.14;100.00
51083;BME280;37131;42.694;23.350;2023-05-14T08:14:16;95990.06;;;9.67;100.00
51083;BME280;37131;42.694;23.350;2023-05-14T08:16:41;96068.59;;;9.84;100.00
51083;BME280;37131;42.694;23.350;2023-05-14T08:19:07;96057.16;;;9.78;100.00
51083;BME280;37131;42.694;23.350;2023-05-14T08:21:32;96061.19;;;10.08;100.00
51083;BME280;37131;42.694;23.350;2023-05-14T08:23:57;96049.16;;;10.20;100.00
51083;BME280;37131;42.694;23.350;2023-05-14T08:26:23;96040.34;;;10.14;100.00
51083;BME280;37131;42.694;23.350;2023-05-14T08:28:48;96039.94;;;10.24;100.00
51083;BME280;37131;42.694;23.350;2023-05-14T08:31:14;96039.56;;;10.34;100.00
51083;BME280;37131;42.694;23.350;2023-05-14T08:33:39;96046.53;;;10.27;100.00
51083;BME280;37131;42.694;23.350;2023-05-14T08:36:05;96052.34;;;10.29;100.00
51083;BME280;37131;42.694;23.350;2023-05-14T08:38:31;96040.34;;;10.21;100.00
51083;BME280;37131;42.694;23.350;2023-05-14T08:40:58;96040.31;;;10.55;100.00
51083;BME280;37131;42.694;23.350;2023-05-14T08:43:44;96027.91;;;10.50;100.00
51083;BME280;37131;42.694;23.350;2023-05-14T08:46:13;96041.94;;;10.56;100.00
51083;BME280;37131;42.694;23.350;2023-05-14T08:48:41;96025.13;;;10.38;100.00
51083;BME280;37131;42.694;23.350;2023-05-14T08:51:07;96021.50;;;10.12;100.00
51083;BME280;37131;42.694;23.350;2023-05-14T08:53:33;96035.94;;;10.42;100.00
51083;BME280;37131;42.694;23.350;2023-05-14T08:56:00;96028.50;;;10.25;100.00
51083;BME280;37131;42.694;23.350;2023-05-14T08:58:25;96001.03;;;10.36;100.00
51083;BME280;37131;42.694;23.350;2023-05-14T09:00:53;96018.69;;;10.47;100.00
51083;BME280;37131;42.694;23.350;2023-05-14T09:03:19;96021.69;;;10.31;100.00
51083;BME280;37131;42.694;23.350;2023-05-14T09:05:46;96024.50;;;10.29;100.00
51083;BME280;37131;42.694;23.350;2023-05-14T09:08:13;96034.53;;;10.19;100.00
51083;BME280;37131;42.694;23.350;2023-05-14T09:10:38;96037.13;;;10.32;100.00
51083;BME280;37131;42.694;23.350;2023-05-14T09:13:04;96031.06;;;10.72;100.00
51083;BME280;37131;42.694;23.350;2023-05-14T09:15:30;96024.47;;;10.56;100.00
51083;BME280;37131;42.694;23.350;2023-05-14T09:17:57;96015.47;;;10.52;100.00
51083;BME280;37131;42.694;23.350;2023-05-14T09:20:23;96011.44;;;10.49;100.00
51083;BME280;37131;42.694;23.350;2023-05-14T09:22:52;96020.47;;;10.53;100.00
51083;BME280;37131;42.694;23.350;2023-05-14T09:25:18;96016.63;;;10.69;100.00
51083;BME280;37131;42.694;23.350;2023-05-14T09:27:46;96025.44;;;10.75;100.00
51083;BME280;37131;42.694;23.350;2023-05-14T09:30:14;96031.47;;;10.62;100.00
51083;BME280;37131;42.694;23.350;2023-05-14T09:32:41;96012.06;;;10.51;100.00
51083;BME280;37131;42.694;23.350;2023-05-14T09:35:32;96008.06;;;10.35;100.00
51083;BME280;37131;42.694;23.350;2023-05-14T09:37:57;96017.28;;;10.18;100.00
51083;BME280;37131;42.694;23.350;2023-05-14T09:40:22;95941.97;;;9.90;100.00
51083;BME280;37131;42.694;23.350;2023-05-14T09:42:48;96005.25;;;10.17;100.00
51083;BME280;37131;42.694;23.350;2023-05-14T09:45:14;95994.00;;;10.30;100.00
51083;BME280;37131;42.694;23.350;2023-05-14T09:47:40;95993.03;;;10.38;100.00
51083;BME280;37131;42.694;23.350;2023-05-14T09:50:07;95988.59;;;10.51;100.00
51083;BME280;37131;42.694;23.350;2023-05-14T09:52:33;95997.81;;;10.27;100.00
51083;BME280;37131;42.694;23.350;2023-05-14T09:54:59;95952.56;;;10.01;100.00
51083;BME280;37131;42.694;23.350;2023-05-14T09:57:24;95999.22;;;10.43;100.00
51083;BME280;37131;42.694;23.350;2023-05-14T09:59:51;95993.00;;;10.24;100.00
51083;BME280;37131;42.694;23.350;2023-05-14T10:02:30;95995.63;;;10.24;100.00
51083;BME280;37131;42.694;23.350;2023-05-14T10:05:03;95988.84;;;10.37;100.00
51083;BME280;37131;42.694;23.350;2023-05-14T10:07:34;95949.28;;;10.46;100.00
51083;BME280;37131;42.694;23.350;2023-05-14T10:10:02;95968.56;;;10.25;100.00
51083;BME280;37131;42.694;23.350;2023-05-14T10:12:37;95961.31;;;10.41;100.00
51083;BME280;37131;42.694;23.350;2023-05-14T10:15:08;95971.19;;;10.05;100.00
51083;BME280;37131;42.694;23.350;2023-05-14T10:17:38;95972.78;;;10.40;100.00
51083;BME280;37131;42.694;23.350;2023-05-14T10:20:07;95965.00;;;10.13;100.00
51083;BME280;37131;42.694;23.350;2023-05-14T10:22:34;95952.75;;;10.13;100.00
51083;BME280;37131;42.694;23.350;2023-05-14T10:25:01;95943.53;;;10.11;100.00
51083;BME280;37131;42.694;23.350;2023-05-14T10:27:27;95943.06;;;10.41;100.00
51083;BME280;37131;42.694;23.350;2023-05-14T10:29:53;95954.13;;;10.23;100.00
51083;BME280;37131;42.694;23.350;2023-05-14T10:32:20;95976.44;;;9.98;100.00
51083;BME280;37131;42.694;23.350;2023-05-14T10:34:47;95972.97;;;10.31;100.00
51083;BME280;37131;42.694;23.350;2023-05-14T10:37:15;95972.56;;;10.41;100.00
51083;BME280;37131;42.694;23.350;2023-05-14T10:40:01;95972.38;;;10.29;100.00
51083;BME280;37131;42.694;23.350;2023-05-14T10:42:34;95965.38;;;10.16;100.00
51083;BME280;37131;42.694;23.350;2023-05-14T10:45:08;95887.88;;;9.78;100.00
51083;BME280;37131;42.694;23.350;2023-05-14T10:47:36;95958.78;;;10.00;100.00
51083;BME280;37131;42.694;23.350;2023-05-14T10:50:04;95959.63;;;9.88;100.00
51083;BME280;37131;42.694;23.350;2023-05-14T10:52:30;95967.22;;;10.03;100.00
51083;BME280;37131;42.694;23.350;2023-05-14T10:54:58;95958.00;;;10.00;100.00
51083;BME280;37131;42.694;23.350;2023-05-14T10:57:26;95956.81;;;9.76;100.00
51083;BME280;37131;42.694;23.350;2023-05-14T10:59:54;95964.78;;;10.08;100.00
51083;BME280;37131;42.694;23.350;2023-05-14T11:02:24;95946.94;;;10.05;100.00
51083;BME280;37131;42.694;23.350;2023-05-14T11:04:57;95936.94;;;9.95;100.00
51083;BME280;37131;42.694;23.350;2023-05-14T11:07:28;95938.56;;;9.89;100.00
51083;BME280;37131;42.694;23.350;2023-05-14T11:10:00;95941.75;;;9.91;100.00
51083;BME280;37131;42.694;23.350;2023-05-14T11:12:26;95949.38;;;9.99;100.00
51083;BME280;37131;42.694;23.350;2023-05-14T11:14:53;95893.69;;;9.74;100.00
51083;BME280;37131;42.694;23.350;2023-05-14T11:17:18;95953.13;;;10.24;100.00
51083;BME280;37131;42.694;23.350;2023-05-14T11:19:44;95965.19;;;10.05;100.00
51083;BME280;37131;42.694;23.350;2023-05-14T11:22:10;95964.38;;;10.11;100.00
51083;BME280;37131;42.694;23.350;2023-05-14T11:24:38;95955.34;;;10.07;100.00
51083;BME280;37131;42.694;23.350;2023-05-14T11:27:06;95948.31;;;10.27;100.00
51083;BME280;37131;42.694;23.350;2023-05-14T11:29:33;95898.84;;;10.00;100.00
51083;BME280;37131;42.694;23.350;2023-05-14T11:31:59;95938.69;;;10.34;100.00
51083;BME280;37131;42.694;23.350;2023-05-14T11:34:24;95941.25;;;10.48;100.00
51083;BME280;37131;42.694;23.350;2023-05-14T11:36:50;95940.69;;;10.26;100.00
51083;BME280;37131;42.694;23.350;2023-05-14T11:39:18;95941.88;;;10.50;100.00
51083;BME280;37131;42.694;23.350;2023-05-14T11:41:44;95938.06;;;10.32;100.00
51083;BME280;37131;42.694;23.350;2023-05-14T11:44:10;95945.28;;;10.30;100.00
51083;BME280;37131;42.694;23.350;2023-05-14T11:46:35;95932.66;;;10.27;100.00
51083;BME280;37131;42.694;23.350;2023-05-14T11:49:03;95926.28;;;10.16;100.00
51083;BME280;37131;42.694;23.350;2023-05-14T11:51:28;95890.66;;;9.90;100.00
51083;BME280;37131;42.694;23.350;2023-05-14T11:53:54;95921.25;;;10.28;100.00
51083;BME280;37131;42.694;23.350;2023-05-14T11:56:20;95926.22;;;10.43;100.00
51083;BME280;37131;42.694;23.350;2023-05-14T11:58:54;95900.56;;;10.47;100.00
51083;BME280;37131;42.694;23.350;2023-05-14T12:01:20;95909.91;;;10.61;100.00
51083;BME280;37131;42.694;23.350;2023-05-14T12:03:46;95918.50;;;10.68;100.00
51083;BME280;37131;42.694;23.350;2023-05-14T12:06:11;95908.78;;;10.89;100.00
51083;BME280;37131;42.694;23.350;2023-05-14T12:08:36;95910.59;;;10.88;100.00
51083;BME280;37131;42.694;23.350;2023-05-14T12:11:02;95891.59;;;10.75;100.00
51083;BME280;37131;42.694;23.350;2023-05-14T12:13:31;95893.47;;;10.67;100.00
51083;BME280;37131;42.694;23.350;2023-05-14T12:15:58;95898.75;;;10.47;100.00
51083;BME280;37131;42.694;23.350;2023-05-14T12:18:26;95873.19;;;10.69;100.00
51083;BME280;37131;42.694;23.350;2023-05-14T12:20:51;95875.13;;;10.81;100.00
51083;BME280;37131;42.694;23.350;2023-05-14T12:23:27;95861.75;;;10.70;100.00
51083;BME280;37131;42.694;23.350;2023-05-14T12:25:53;95865.81;;;10.92;100.00
51083;BME280;37131;42.694;23.350;2023-05-14T12:28:19;95863.50;;;11.09;100.00
51083;BME280;37131;42.694;23.350;2023-05-14T12:30:45;95849.72;;;11.01;100.00
51083;BME280;37131;42.694;23.350;2023-05-14T12:33:11;95863.25;;;10.85;100.00
51083;BME280;37131;42.694;23.350;2023-05-14T12:35:37;95852.94;;;10.97;100.00
51083;BME280;37131;42.694;23.350;2023-05-14T12:38:03;95841.47;;;11.04;100.00
51083;BME280;37131;42.694;23.350;2023-05-14T12:40:29;95855.91;;;10.75;100.00
51083;BME280;37131;42.694;23.350;2023-05-14T12:42:54;95849.97;;;10.93;100.00
51083;BME280;37131;42.694;23.350;2023-05-14T12:45:20;95854.25;;;10.81;100.00
51083;BME280;37131;42.694;23.350;2023-05-14T12:47:45;95848.41;;;10.85;100.00
51083;BME280;37131;42.694;23.350;2023-05-14T12:50:11;95849.81;;;10.88;100.00